Time;durP1;ratioP1;P1;durP2;ratioP2;P2;SDS_P1;SDS_P2;PMS_P1;PMS_P2;Temp;Humidity;BMP_temperature;BMP_pressure;BME280_temperature;BME280_humidity;BME280_pressure;Samples;Min_cycle;Max_cycle;Signal;HPM_P1;HPM_P2
2023/04/27 00:00:35;;;;;;;4.20;2.17;;;11.00;63.00;;;;;;5030725;28;20165;-80
2023/04/27 00:03:04;;;;;;;3.20;2.25;;;11.00;63.20;;;;;;5031270;28;20169;-80
2023/04/27 00:05:37;;;;;;;4.15;2.50;;;10.90;63.20;;;;;;5029791;28;20181;-79
2023/04/27 00:08:04;;;;;;;4.20;1.77;;;10.90;64.30;;;;;;5029942;28;20839;-79
2023/04/27 00:10:30;;;;;;;3.05;2.33;;;10.90;63.30;;;;;;5011215;28;20640;-79
2023/04/27 00:12:56;;;;;;;4.20;2.40;;;10.80;63.40;;;;;;5010914;28;20181;-79
2023/04/27 00:15:22;;;;;;;2.90;2.07;;;10.80;63.60;;;;;;5009896;28;20673;-79
2023/04/27 00:17:47;;;;;;;5.30;1.97;;;10.80;64.10;;;;;;5010555;28;20186;-78
2023/04/27 00:20:13;;;;;;;3.23;2.10;;;10.80;64.10;;;;;;5011333;28;20177;-78
2023/04/27 00:22:39;;;;;;;2.93;2.63;;;10.80;64.40;;;;;;5010571;28;20171;-78
2023/04/27 00:25:06;;;;;;;3.75;1.90;;;10.70;64.20;;;;;;5011458;28;20541;-79
2023/04/27 00:27:31;;;;;;;3.53;1.55;;;10.70;64.20;;;;;;5011277;28;20171;-79
2023/04/27 00:29:57;;;;;;;5.20;1.97;;;10.70;64.40;;;;;;5009708;28;20221;-78
2023/04/27 00:32:23;;;;;;;3.87;2.63;;;10.70;64.40;;;;;;4993533;28;20257;-79
2023/04/27 00:34:48;;;;;;;3.50;2.87;;;10.70;64.50;;;;;;4993261;28;20178;-79
2023/04/27 00:37:14;;;;;;;4.37;1.90;;;10.70;64.70;;;;;;5009646;28;20198;-80
2023/04/27 00:39:40;;;;;;;2.53;1.93;;;10.60;64.70;;;;;;5009420;28;20520;-79
2023/04/27 00:42:10;;;;;;;5.07;2.10;;;10.60;64.80;;;;;;5009766;28;20178;-79
2023/04/27 00:44:35;;;;;;;3.45;2.03;;;10.60;65.00;;;;;;5009587;28;20186;-79
2023/04/27 00:47:01;;;;;;;4.23;2.10;;;10.60;65.20;;;;;;4993238;28;20182;-79
2023/04/27 00:49:27;;;;;;;3.00;1.90;;;10.60;65.50;;;;;;5009657;28;20297;-79
2023/04/27 00:51:54;;;;;;;2.95;2.15;;;10.60;65.60;;;;;;5016768;28;21167;-79
2023/04/27 00:54:22;;;;;;;5.28;2.38;;;10.60;65.70;;;;;;5021355;28;20547;-80
2023/04/27 00:56:49;;;;;;;4.88;2.50;;;10.60;65.70;;;;;;5012085;28;20208;-79
2023/04/27 00:59:18;;;;;;;3.67;2.13;;;10.60;65.80;;;;;;5012797;28;20194;-80
2023/04/27 01:01:48;;;;;;;3.78;2.40;;;10.50;65.70;;;;;;5025863;28;20261;-79
2023/04/27 01:04:16;;;;;;;3.80;2.90;;;10.50;66.10;;;;;;5009426;28;20613;-79
2023/04/27 01:06:42;;;;;;;5.43;2.70;;;10.50;66.10;;;;;;5009599;28;20537;-80
2023/04/27 01:09:09;;;;;;;4.55;2.22;;;10.40;66.00;;;;;;4992835;28;20214;-79
2023/04/27 01:11:35;;;;;;;4.93;3.38;;;10.40;66.30;;;;;;5005237;28;20189;-79
2023/04/27 01:14:04;;;;;;;6.73;3.67;;;10.40;66.50;;;;;;5003354;28;20272;-80
2023/04/27 01:16:31;;;;;;;4.75;2.50;;;10.30;66.60;;;;;;4997302;28;20540;-79
2023/04/27 01:18:57;;;;;;;4.93;2.90;;;10.30;66.70;;;;;;5024793;28;20202;-79
2023/04/27 01:21:24;;;;;;;4.30;2.58;;;10.30;66.70;;;;;;4992021;28;20178;-80
2023/04/27 01:23:50;;;;;;;4.10;2.13;;;10.20;66.80;;;;;;5012551;28;20182;-79
2023/04/27 01:26:16;;;;;;;3.10;2.10;;;10.20;67.00;;;;;;4996160;28;20178;-80
2023/04/27 01:28:42;;;;;;;4.97;3.53;;;10.10;67.00;;;;;;5012971;28;20198;-80
2023/04/27 01:31:10;;;;;;;3.70;2.80;;;10.10;67.50;;;;;;4995917;28;20182;-80
2023/04/27 01:33:36;;;;;;;4.30;2.40;;;10.10;67.80;;;;;;5014352;28;20166;-80
2023/04/27 01:36:02;;;;;;;3.50;2.55;;;10.00;67.80;;;;;;5012298;28;20215;-79
2023/04/27 01:38:27;;;;;;;3.87;2.73;;;9.90;69.90;;;;;;4996507;28;20186;-80
2023/04/27 01:40:54;;;;;;;2.70;2.03;;;9.90;69.20;;;;;;4996821;28;20581;-79
2023/04/27 01:43:20;;;;;;;5.15;2.70;;;9.80;69.80;;;;;;5012805;28;20264;-79
2023/04/27 01:45:47;;;;;;;3.42;2.33;;;9.80;69.60;;;;;;5012666;28;20322;-80
2023/04/27 01:48:13;;;;;;;5.60;3.10;;;9.70;69.80;;;;;;5011687;28;20197;-79
2023/04/27 01:50:38;;;;;;;7.53;2.67;;;9.60;69.90;;;;;;5012775;28;20174;-79
2023/04/27 01:53:05;;;;;;;3.85;3.00;;;9.60;70.00;;;;;;4995907;28;20170;-79
2023/04/27 01:55:31;;;;;;;5.83;3.10;;;9.60;70.40;;;;;;5012551;28;20696;-79
2023/04/27 01:57:57;;;;;;;5.05;3.15;;;9.50;70.50;;;;;;5011900;28;20229;-79
2023/04/27 02:00:23;;;;;;;3.77;2.30;;;9.40;70.80;;;;;;5007547;28;20205;-79
2023/04/27 02:02:52;;;;;;;4.18;3.40;;;9.40;70.90;;;;;;5024552;28;20179;-79
2023/04/27 02:05:19;;;;;;;4.45;3.05;;;9.30;71.00;;;;;;5017922;28;20188;-79
2023/04/27 02:07:46;;;;;;;5.82;3.70;;;9.30;71.10;;;;;;4998561;28;20253;-79
2023/04/27 02:10:12;;;;;;;5.53;3.13;;;9.20;71.30;;;;;;5013307;28;20581;-79
2023/04/27 02:12:37;;;;;;;5.23;3.20;;;9.10;71.40;;;;;;5012096;28;20177;-79
2023/04/27 02:15:04;;;;;;;5.90;3.93;;;9.10;71.50;;;;;;4995182;28;20650;-79
2023/04/27 02:17:30;;;;;;;4.68;3.22;;;9.00;72.00;;;;;;4995832;28;20484;-79
2023/04/27 02:19:56;;;;;;;4.03;3.20;;;9.00;72.00;;;;;;5012308;28;20200;-79
2023/04/27 02:22:22;;;;;;;3.73;3.33;;;8.90;72.40;;;;;;5002865;28;20253;-79
2023/04/27 02:24:48;;;;;;;5.63;3.20;;;8.80;72.90;;;;;;5016458;28;20646;-79
2023/04/27 02:27:14;;;;;;;5.07;2.90;;;8.80;72.50;;;;;;5011708;28;20186;-79
2023/04/27 02:29:39;;;;;;;3.70;2.70;;;8.70;72.80;;;;;;5013036;28;20213;-80
2023/04/27 02:32:05;;;;;;;3.70;2.73;;;8.70;73.80;;;;;;5011419;28;20598;-79
2023/04/27 02:34:31;;;;;;;6.45;3.55;;;8.70;73.20;;;;;;4994550;28;20189;-79
2023/04/27 02:36:57;;;;;;;4.43;2.92;;;8.60;73.30;;;;;;5011173;28;20233;-79
2023/04/27 02:39:24;;;;;;;4.50;2.25;;;8.60;73.80;;;;;;5028256;28;20606;-80
2023/04/27 02:41:50;;;;;;;5.23;3.40;;;8.50;74.10;;;;;;5011159;28;20178;-80
2023/04/27 02:44:15;;;;;;;6.13;3.53;;;8.50;74.40;;;;;;4995695;28;20406;-80
2023/04/27 02:46:41;;;;;;;5.43;2.67;;;8.40;74.40;;;;;;4995132;28;20277;-80
2023/04/27 02:49:07;;;;;;;8.27;3.43;;;8.40;74.80;;;;;;4994813;28;20625;-80
2023/04/27 02:51:33;;;;;;;5.40;3.20;;;8.30;75.00;;;;;;5011490;28;20182;-79
2023/04/27 02:53:58;;;;;;;3.70;2.57;;;8.30;75.20;;;;;;5011148;28;20181;-79
2023/04/27 02:56:24;;;;;;;3.70;2.87;;;8.20;75.30;;;;;;5011336;28;20213;-79
2023/04/27 02:58:51;;;;;;;6.00;2.70;;;8.10;75.40;;;;;;4994803;28;20333;-79
2023/04/27 03:01:17;;;;;;;7.40;3.47;;;8.10;75.70;;;;;;5011368;28;20304;-79
2023/04/27 03:03:46;;;;;;;3.73;2.87;;;8.10;76.30;;;;;;5011146;28;20574;-79
2023/04/27 03:06:13;;;;;;;4.03;2.70;;;8.00;76.50;;;;;;5012347;28;20589;-79
2023/04/27 03:08:39;;;;;;;4.38;2.70;;;8.00;76.50;;;;;;4994966;28;20252;-80
2023/04/27 03:11:04;;;;;;;5.43;2.40;;;7.90;76.80;;;;;;4994321;28;20182;-80
2023/04/27 03:13:34;;;;;;;3.97;2.37;;;7.90;77.10;;;;;;5010107;28;20593;-79
2023/04/27 03:16:00;;;;;;;5.18;2.95;;;7.80;77.50;;;;;;4994081;28;20202;-80
2023/04/27 03:18:26;;;;;;;4.30;2.60;;;7.80;77.50;;;;;;5016292;28;20198;-80
2023/04/27 03:20:52;;;;;;;5.20;3.50;;;7.70;77.60;;;;;;4997908;28;20180;-80
2023/04/27 03:23:18;;;;;;;6.50;2.57;;;7.70;78.00;;;;;;5022214;28;20202;-80
2023/04/27 03:25:43;;;;;;;5.73;3.10;;;7.70;78.20;;;;;;5019811;28;20213;-78
2023/04/27 03:28:10;;;;;;;3.90;3.00;;;7.60;78.40;;;;;;4995339;28;20881;-78
2023/04/27 03:30:38;;;;;;;6.30;2.70;;;7.60;78.60;;;;;;5030408;28;20638;-77
2023/04/27 03:33:04;;;;;;;3.55;2.35;;;7.60;78.80;;;;;;5013370;28;20216;-78
2023/04/27 03:35:30;;;;;;;5.63;3.00;;;7.60;79.00;;;;;;5030036;28;20689;-78
2023/04/27 03:37:55;;;;;;;5.43;2.83;;;7.50;79.40;;;;;;5013130;28;20666;-77
2023/04/27 03:40:21;;;;;;;3.87;3.30;;;7.50;79.70;;;;;;5013674;28;20212;-77
2023/04/27 03:42:47;;;;;;;3.90;2.70;;;7.50;80.00;;;;;;5046531;28;20646;-77
2023/04/27 03:45:15;;;;;;;3.15;2.30;;;7.50;80.40;;;;;;5013785;28;20645;-78
2023/04/27 03:47:41;;;;;;;6.55;3.50;;;7.40;80.50;;;;;;5013161;28;20177;-78
2023/04/27 03:50:06;;;;;;;4.30;2.03;;;7.40;80.80;;;;;;5012897;28;20188;-78
2023/04/27 03:52:32;;;;;;;3.53;2.63;;;7.40;81.00;;;;;;5030103;28;20173;-77
2023/04/27 03:54:58;;;;;;;3.97;2.53;;;7.40;81.40;;;;;;5031249;28;20894;-77
2023/04/27 03:57:25;;;;;;;4.28;3.22;;;7.30;81.60;;;;;;5013472;28;20270;-78
2023/04/27 03:59:51;;;;;;;4.93;3.33;;;7.30;82.00;;;;;;5031016;28;20239;-77
2023/04/27 04:02:17;;;;;;;4.85;3.00;;;7.30;83.40;;;;;;5030172;28;20588;-78
2023/04/27 04:04:43;;;;;;;5.03;2.90;;;7.30;82.70;;;;;;5030553;28;20256;-79
2023/04/27 04:07:08;;;;;;;4.00;2.60;;;7.20;83.30;;;;;;5029517;28;20619;-78
2023/04/27 04:09:34;;;;;;;5.90;3.00;;;7.20;83.30;;;;;;5013601;28;20197;-78
2023/04/27 04:12:00;;;;;;;4.90;3.20;;;7.20;83.40;;;;;;5030697;28;20572;-78
2023/04/27 04:14:27;;;;;;;3.35;2.25;;;7.20;83.50;;;;;;5023783;28;20654;-78
2023/04/27 04:16:53;;;;;;;5.88;2.63;;;7.20;84.00;;;;;;5006270;28;20764;-79
2023/04/27 04:19:20;;;;;;;4.75;2.50;;;7.10;84.30;;;;;;5014626;28;20232;-79
2023/04/27 04:21:45;;;;;;;4.10;2.83;;;7.10;84.50;;;;;;5029784;28;20174;-79
2023/04/27 04:24:11;;;;;;;5.17;2.90;;;7.10;85.30;;;;;;5016125;28;20170;-79
2023/04/27 04:26:38;;;;;;;4.03;2.38;;;7.10;85.40;;;;;;4994281;28;20174;-79
2023/04/27 04:29:04;;;;;;;3.67;2.50;;;7.10;85.70;;;;;;5009642;28;20190;-79
2023/04/27 04:31:30;;;;;;;5.20;3.45;;;7.10;86.00;;;;;;5028166;28;20546;-79
2023/04/27 04:33:56;;;;;;;6.93;3.03;;;7.10;86.30;;;;;;5010356;28;20182;-79
2023/04/27 04:36:22;;;;;;;3.88;2.80;;;7.10;86.50;;;;;;4994195;28;20686;-79
2023/04/27 04:38:53;;;;;;;4.55;3.03;;;7.10;86.90;;;;;;4978587;28;20194;-79
2023/04/27 04:41:19;;;;;;;4.65;3.30;;;7.20;87.30;;;;;;5011756;28;20179;-79
2023/04/27 04:43:44;;;;;;;4.73;2.60;;;7.20;87.30;;;;;;5010081;28;20174;-80
2023/04/27 04:46:10;;;;;;;3.50;2.90;;;7.20;87.70;;;;;;5011473;28;20194;-79
2023/04/27 04:48:36;;;;;;;4.03;2.70;;;7.20;88.20;;;;;;5011366;28;20629;-79
2023/04/27 04:51:05;;;;;;;5.03;3.45;;;7.20;88.40;;;;;;4994703;28;20178;-79
2023/04/27 04:53:31;;;;;;;5.03;3.53;;;7.30;88.90;;;;;;5010064;28;20228;-78
2023/04/27 04:56:06;;;;;;;6.20;4.07;;;7.30;89.20;;;;;;4992730;28;20233;-79
2023/04/27 04:58:32;;;;;;;3.67;2.50;;;7.30;89.40;;;;;;5011477;28;20251;-78
2023/04/27 05:00:58;;;;;;;4.93;3.03;;;7.40;89.80;;;;;;5013391;28;20171;-81
2023/04/27 05:03:25;;;;;;;5.32;3.80;;;7.40;89.70;;;;;;4997230;28;20657;-78
2023/04/27 05:05:54;;;;;;;6.47;3.55;;;7.50;90.20;;;;;;5014088;28;20532;-78
2023/04/27 05:08:20;;;;;;;4.75;3.58;;;7.50;90.50;;;;;;5014681;28;20546;-79
2023/04/27 05:10:50;;;;;;;5.27;3.47;;;7.60;90.50;;;;;;5021044;28;20185;-79
2023/04/27 05:13:16;;;;;;;5.18;3.33;;;7.70;90.80;;;;;;5024598;28;20192;-79
2023/04/27 05:15:42;;;;;;;6.50;4.00;;;7.70;90.70;;;;;;5032953;28;20197;-78
2023/04/27 05:18:07;;;;;;;5.87;3.70;;;7.80;90.90;;;;;;5033919;28;20551;-78
2023/04/27 05:20:37;;;;;;;4.67;3.80;;;7.80;91.10;;;;;;5034198;28;21121;-79
2023/04/27 05:23:03;;;;;;;9.52;4.07;;;7.90;91.60;;;;;;4990067;28;20596;-78
2023/04/27 05:25:30;;;;;;;8.00;3.38;;;8.00;91.20;;;;;;5013738;28;20181;-79
2023/04/27 05:27:56;;;;;;;5.60;3.35;;;8.10;91.20;;;;;;4996013;28;20190;-78
2023/04/27 05:30:21;;;;;;;4.83;3.93;;;8.10;91.30;;;;;;5013198;28;20185;-78
2023/04/27 05:32:47;;;;;;;6.03;4.07;;;8.20;91.60;;;;;;5012626;28;20178;-78
2023/04/27 05:35:13;;;;;;;6.97;4.80;;;8.30;91.50;;;;;;5014352;28;20178;-78
2023/04/27 05:37:38;;;;;;;6.77;4.53;;;8.40;92.10;;;;;;5013968;28;20232;-78
2023/04/27 05:40:08;;;;;;;5.77;4.67;;;8.50;91.80;;;;;;5012569;28;20619;-78
2023/04/27 05:42:33;;;;;;;5.88;4.85;;;8.60;91.90;;;;;;5012572;28;20341;-78
2023/04/27 05:45:01;;;;;;;5.40;4.20;;;8.60;92.00;;;;;;5012559;28;20280;-78
2023/04/27 05:47:27;;;;;;;7.95;4.35;;;8.80;92.10;;;;;;5013801;28;20171;-78
2023/04/27 05:49:53;;;;;;;10.40;5.20;;;8.90;92.20;;;;;;5012067;28;20573;-78
2023/04/27 05:52:19;;;;;;;5.60;3.53;;;8.90;92.20;;;;;;5012407;28;20596;-78
2023/04/27 05:54:47;;;;;;;11.95;4.80;;;9.00;92.10;;;;;;5013600;28;20170;-78
2023/04/27 05:57:13;;;;;;;7.57;4.75;;;9.10;92.10;;;;;;5013649;28;20209;-78
2023/04/27 05:59:39;;;;;;;8.32;4.72;;;9.20;92.10;;;;;;5013858;28;20597;-78
2023/04/27 06:02:05;;;;;;;5.60;4.53;;;9.30;92.10;;;;;;5011983;28;20178;-78
2023/04/27 06:04:32;;;;;;;10.27;5.63;;;9.40;92.10;;;;;;5012392;28;20599;-78
2023/04/27 06:06:58;;;;;;;9.57;5.00;;;9.40;92.20;;;;;;5020037;28;20699;-77
2023/04/27 06:09:24;;;;;;;10.05;5.93;;;9.50;92.40;;;;;;5025245;28;20565;-77
2023/04/27 06:11:50;;;;;;;8.35;5.68;;;9.60;92.40;;;;;;5011918;28;20646;-77
2023/04/27 06:14:16;;;;;;;14.20;6.07;;;9.60;92.50;;;;;;5011458;28;20185;-75
2023/04/27 06:16:42;;;;;;;6.87;5.57;;;9.80;92.50;;;;;;5012741;28;20206;-75
2023/04/27 06:19:08;;;;;;;7.97;4.85;;;9.90;92.80;;;;;;4995703;28;20692;-77
2023/04/27 06:21:34;;;;;;;8.83;5.27;;;10.10;92.10;;;;;;5012943;28;20691;-75
2023/04/27 06:24:01;;;;;;;8.55;5.85;;;10.40;92.50;;;;;;5013000;28;20197;-75
2023/04/27 06:26:27;;;;;;;4.90;3.70;;;11.10;93.90;;;;;;5011954;28;20174;-76
2023/04/27 06:28:54;;;;;;;7.17;5.40;;;12.00;95.10;;;;;;5011382;28;20290;-76
2023/04/27 06:31:20;;;;;;;11.23;5.50;;;13.10;95.90;;;;;;5013256;28;20895;-76
2023/04/27 06:33:45;;;;;;;5.73;4.50;;;14.20;96.40;;;;;;5011586;28;20585;-75
2023/04/27 06:36:11;;;;;;;5.83;5.13;;;15.30;96.20;;;;;;5011780;28;20717;-75
2023/04/27 06:38:37;;;;;;;8.57;5.60;;;16.20;93.50;;;;;;5011330;28;20206;-76
2023/04/27 06:41:03;;;;;;;6.73;5.63;;;17.10;92.60;;;;;;5011783;28;20513;-75
2023/04/27 06:43:29;;;;;;;7.60;4.70;;;17.90;92.60;;;;;;5011715;28;20174;-76
2023/04/27 06:45:55;;;;;;;4.87;4.20;;;18.70;92.30;;;;;;5012177;28;20668;-75
2023/04/27 06:48:21;;;;;;;7.77;5.30;;;19.70;92.30;;;;;;5012721;28;20713;-75
2023/04/27 06:50:46;;;;;;;7.10;4.57;;;20.60;91.80;;;;;;5012319;28;20210;-75
2023/04/27 06:53:12;;;;;;;6.33;4.10;;;21.50;91.00;;;;;;5012654;28;20547;-76
2023/04/27 06:55:38;;;;;;;5.97;4.30;;;22.40;90.50;;;;;;5010737;28;20206;-75
2023/04/27 06:58:04;;;;;;;4.43;3.87;;;23.20;89.10;;;;;;5012803;28;20194;-76
2023/04/27 07:00:30;;;;;;;7.00;4.67;;;23.90;86.70;;;;;;5010727;28;20659;-76
2023/04/27 07:02:56;;;;;;;8.40;6.30;;;24.60;84.30;;;;;;5020162;28;20260;-76
2023/04/27 07:05:22;;;;;;;8.17;5.03;;;25.20;82.90;;;;;;5024117;28;20634;-76
2023/04/27 07:07:48;;;;;;;10.57;7.40;;;25.80;79.90;;;;;;5031339;28;20170;-76
2023/04/27 07:10:13;;;;;;;5.63;5.00;;;26.40;77.10;;;;;;5023037;28;20666;-75
2023/04/27 07:12:40;;;;;;;5.20;4.13;;;26.90;74.70;;;;;;5012026;28;20174;-76
2023/04/27 07:15:07;;;;;;;7.87;4.60;;;27.30;72.50;;;;;;5015362;28;20223;-76
2023/04/27 07:17:33;;;;;;;3.97;3.20;;;27.40;65.70;;;;;;5011566;28;20672;-76
2023/04/27 07:20:00;;;;;;;13.37;6.67;;;27.40;63.70;;;;;;5012307;28;20617;-76
2023/04/27 07:22:27;;;;;;;6.60;3.70;;;27.40;62.70;;;;;;5011075;28;20174;-76
2023/04/27 07:24:53;;;;;;;5.10;4.60;;;27.50;59.90;;;;;;5012328;28;20576;-77
2023/04/27 07:27:20;;;;;;;4.23;3.80;;;27.10;57.90;;;;;;5010733;28;20635;-76
2023/04/27 07:29:46;;;;;;;4.60;3.87;;;26.80;57.60;;;;;;5011602;28;20205;-76
2023/04/27 07:32:11;;;;;;;6.10;4.07;;;26.50;56.40;;;;;;5011122;28;20609;-75
2023/04/27 07:34:37;;;;;;;6.90;5.17;;;26.10;55.70;;;;;;5011717;28;20181;-76
2023/04/27 07:37:04;;;;;;;6.37;5.07;;;25.90;53.90;;;;;;4994093;28;20209;-76
2023/04/27 07:39:30;;;;;;;8.53;4.80;;;25.70;54.80;;;;;;5011519;28;20198;-76
2023/04/27 07:41:57;;;;;;;5.50;3.90;;;25.70;55.30;;;;;;4994346;28;20669;-76
2023/04/27 07:44:22;;;;;;;4.77;4.20;;;25.90;55.60;;;;;;5010434;28;20182;-76
2023/04/27 07:46:48;;;;;;;6.50;5.90;;;26.30;56.10;;;;;;5010316;28;20565;-76
2023/04/27 07:49:15;;;;;;;4.70;3.97;;;26.50;54.80;;;;;;5011911;28;20213;-76
2023/04/27 07:51:41;;;;;;;4.63;4.10;;;26.80;54.90;;;;;;5011964;28;20585;-76
2023/04/27 07:54:07;;;;;;;5.40;4.10;;;26.90;54.40;;;;;;5010469;28;20577;-76
2023/04/27 07:56:33;;;;;;;6.37;4.77;;;27.20;53.80;;;;;;5009798;28;20624;-76
2023/04/27 07:58:59;;;;;;;5.67;4.73;;;27.40;52.80;;;;;;5011591;28;20629;-76
2023/04/27 08:01:25;;;;;;;5.23;4.73;;;27.50;51.40;;;;;;5022721;28;20592;-76
2023/04/27 08:03:50;;;;;;;6.57;5.83;;;27.60;51.40;;;;;;5031484;28;20165;-76
2023/04/27 08:06:17;;;;;;;7.83;5.23;;;27.20;49.20;;;;;;5030709;28;20511;-76
2023/04/27 08:08:43;;;;;;;4.97;4.57;;;26.60;48.00;;;;;;5030973;28;20286;-76
2023/04/27 08:11:12;;;;;;;5.30;3.27;;;26.50;49.50;;;;;;5031297;28;21210;-76
2023/04/27 08:13:38;;;;;;;10.47;5.87;;;26.60;49.50;;;;;;5030672;28;20244;-76
2023/04/27 08:16:06;;;;;;;5.53;4.27;;;26.80;48.00;;;;;;5030503;28;20623;-76
2023/04/27 08:18:33;;;;;;;6.23;4.50;;;27.10;49.70;;;;;;5029310;28;20252;-76
2023/04/27 08:20:59;;;;;;;5.50;3.90;;;27.30;49.70;;;;;;5017126;28;21048;-76
2023/04/27 08:23:31;;;;;;;5.67;4.20;;;27.50;49.20;;;;;;5010731;28;20578;-76
2023/04/27 08:25:57;;;;;;;6.20;4.47;;;27.50;47.10;;;;;;5009847;28;20574;-77
2023/04/27 08:28:23;;;;;;;5.07;3.83;;;27.20;46.30;;;;;;5011681;28;20957;-76
2023/04/27 08:30:49;;;;;;;4.30;3.10;;;27.10;47.30;;;;;;5011424;28;20566;-76
2023/04/27 08:33:15;;;;;;;4.93;4.00;;;27.20;46.90;;;;;;5010016;28;20579;-76
2023/04/27 08:35:40;;;;;;;5.17;4.23;;;27.20;46.70;;;;;;5006584;28;20213;-77
2023/04/27 08:38:06;;;;;;;3.73;3.37;;;27.30;45.20;;;;;;5010669;28;20200;-77
2023/04/27 08:40:32;;;;;;;4.50;3.50;;;27.20;46.00;;;;;;5010511;28;20508;-77
2023/04/27 08:43:00;;;;;;;8.60;3.80;;;27.50;46.50;;;;;;5010059;28;20224;-76
2023/04/27 08:45:27;;;;;;;3.80;3.20;;;27.90;46.90;;;;;;5010385;28;20182;-76
2023/04/27 08:47:53;;;;;;;4.37;3.00;;;28.40;46.90;;;;;;5010808;28;20616;-76
2023/04/27 08:50:19;;;;;;;4.07;3.20;;;28.70;46.60;;;;;;5010299;28;20594;-76
2023/04/27 08:52:46;;;;;;;5.70;4.73;;;29.10;46.40;;;;;;5009397;28;20170;-76
2023/04/27 08:55:12;;;;;;;6.07;3.03;;;29.30;45.60;;;;;;5011113;28;20193;-76
2023/04/27 08:57:38;;;;;;;5.40;3.30;;;29.60;45.20;;;;;;5020236;28;20612;-76
2023/04/27 09:00:12;;;;;;;7.57;4.00;;;29.90;44.40;;;;;;5013130;28;20960;-76
2023/04/27 09:02:45;;;;;;;5.10;3.73;;;30.00;43.70;;;;;;5018361;28;20264;-76
2023/04/27 09:05:19;;;;;;;7.43;2.60;;;30.20;43.30;;;;;;5009880;28;20721;-76
2023/04/27 09:08:04;;;;;;;5.83;3.00;;;30.40;43.60;;;;;;5008574;28;20600;-76
2023/04/27 09:10:46;;;;;;;3.87;3.00;;;30.60;42.60;;;;;;5010764;28;20585;-77
2023/04/27 09:13:12;;;;;;;4.87;3.50;;;30.70;42.30;;;;;;5010131;28;20581;-77
2023/04/27 09:15:43;;;;;;;4.33;3.60;;;30.90;42.40;;;;;;5009531;28;21018;-76
2023/04/27 09:18:15;;;;;;;5.27;3.67;;;31.10;41.70;;;;;;5008869;28;20701;-76
2023/04/27 09:20:49;;;;;;;4.00;3.30;;;31.00;40.10;;;;;;5008355;28;20657;-76
2023/04/27 09:23:29;;;;;;;4.17;3.53;;;30.90;40.70;;;;;;5009410;28;20940;-76
2023/04/27 09:25:56;;;;;;;4.20;3.80;;;31.10;40.80;;;;;;5010448;28;20577;-76
2023/04/27 09:28:23;;;;;;;6.13;4.33;;;31.20;40.00;;;;;;5009354;28;20672;-76
2023/04/27 09:30:54;;;;;;;4.60;3.70;;;31.10;38.30;;;;;;4992860;28;20597;-76
2023/04/27 09:33:31;;;;;;;6.03;3.87;;;31.20;38.70;;;;;;5009497;28;20630;-76
2023/04/27 09:35:59;;;;;;;4.20;3.80;;;31.40;38.60;;;;;;5009936;28;20634;-76
2023/04/27 09:38:25;;;;;;;4.60;4.03;;;31.50;38.30;;;;;;5009314;28;20612;-76
2023/04/27 09:40:52;;;;;;;5.57;3.93;;;31.50;38.10;;;;;;5010177;28;20582;-76
2023/04/27 09:43:18;;;;;;;5.37;4.27;;;31.50;38.00;;;;;;5010339;28;20923;-77
2023/04/27 09:45:43;;;;;;;5.70;4.13;;;31.50;36.10;;;;;;5013605;28;20613;-76
2023/04/27 09:48:11;;;;;;;3.83;3.43;;;31.60;36.60;;;;;;5013641;28;20602;-76
2023/04/27 09:50:39;;;;;;;6.50;4.40;;;31.60;36.90;;;;;;5014259;28;20179;-76
2023/04/27 09:53:07;;;;;;;6.73;3.60;;;31.50;36.10;;;;;;5023504;28;20651;-76
2023/04/27 09:55:39;;;;;;;4.77;3.77;;;31.50;35.90;;;;;;5031954;28;20587;-76
2023/04/27 09:58:43;;;;;;;5.40;3.90;;;31.30;35.00;;;;;;5033035;28;20622;-76
2023/04/27 10:01:48;;;;;;;6.33;4.77;;;31.10;35.20;;;;;;5032151;28;20580;-76
2023/04/27 10:04:29;;;;;;;4.77;3.27;;;30.70;34.60;;;;;;5033180;28;20590;-76
2023/04/27 10:07:00;;;;;;;4.10;3.30;;;30.50;35.20;;;;;;5031885;28;20564;-76
2023/04/27 10:09:34;;;;;;;5.17;3.63;;;30.30;34.90;;;;;;5015124;28;20669;-76
2023/04/27 10:12:25;;;;;;;7.07;4.17;;;30.20;35.40;;;;;;4993227;28;20594;-77
2023/04/27 10:14:56;;;;;;;6.43;4.30;;;29.80;34.60;;;;;;5008512;28;21078;-77
2023/04/27 10:17:30;;;;;;;4.47;2.90;;;29.40;34.30;;;;;;4996811;28;20642;-77
2023/04/27 10:20:04;;;;;;;8.17;4.07;;;29.00;35.10;;;;;;5013726;28;20593;-78
2023/04/27 10:22:41;;;;;;;5.37;3.70;;;29.00;35.60;;;;;;5004869;28;20585;-76
2023/04/27 10:25:20;;;;;;;8.33;4.47;;;29.10;35.70;;;;;;5013151;28;20659;-77
2023/04/27 10:27:53;;;;;;;4.47;3.87;;;29.20;35.30;;;;;;5013030;28;20570;-77
2023/04/27 10:30:21;;;;;;;3.97;3.50;;;29.10;35.00;;;;;;5012127;28;20583;-77
2023/04/27 10:32:55;;;;;;;5.73;4.10;;;28.70;35.10;;;;;;5011551;28;20646;-77
2023/04/27 10:35:30;;;;;;;5.33;4.83;;;28.50;34.70;;;;;;5013291;28;20570;-76
2023/04/27 10:38:04;;;;;;;4.73;4.33;;;28.30;34.90;;;;;;5012586;28;21261;-77
2023/04/27 10:40:33;;;;;;;6.27;4.70;;;27.90;34.10;;;;;;5012080;28;20586;-76
2023/04/27 10:43:11;;;;;;;4.87;3.93;;;27.50;34.60;;;;;;5011574;28;20616;-76
2023/04/27 10:45:37;;;;;;;6.23;4.80;;;27.30;35.00;;;;;;5012735;28;20581;-76
2023/04/27 10:48:04;;;;;;;5.80;5.00;;;27.20;35.80;;;;;;5001364;28;20648;-76
2023/04/27 10:50:30;;;;;;;4.67;4.17;;;27.20;36.00;;;;;;5018372;28;20592;-76
2023/04/27 10:53:04;;;;;;;4.80;4.30;;;27.30;35.80;;;;;;5031042;28;20573;-76
2023/04/27 10:55:30;;;;;;;5.47;4.63;;;27.00;34.90;;;;;;5030280;28;20593;-77
2023/04/27 10:57:57;;;;;;;6.40;4.87;;;26.40;34.00;;;;;;5032561;28;20626;-76
2023/04/27 11:00:37;;;;;;;6.17;5.10;;;25.80;34.50;;;;;;5014376;28;20642;-77
2023/04/27 11:03:17;;;;;;;4.80;3.40;;;25.60;35.00;;;;;;5031168;28;20580;-77
2023/04/27 11:05:57;;;;;;;5.50;4.73;;;25.60;35.60;;;;;;5030403;28;20580;-76
2023/04/27 11:08:23;;;;;;;7.03;4.20;;;25.50;35.30;;;;;;5032320;28;20631;-76
2023/04/27 11:10:50;;;;;;;5.20;4.03;;;25.40;35.70;;;;;;5014209;28;20589;-76
2023/04/27 11:13:21;;;;;;;6.97;5.37;;;25.40;35.70;;;;;;5012331;28;20206;-76
2023/04/27 11:15:49;;;;;;;4.73;4.13;;;25.50;35.60;;;;;;5011619;28;20628;-76
2023/04/27 11:18:18;;;;;;;6.30;5.40;;;25.50;35.80;;;;;;5012447;28;20616;-76
2023/04/27 11:20:51;;;;;;;4.77;3.57;;;25.60;35.70;;;;;;5010499;28;20577;-77
2023/04/27 11:23:37;;;;;;;10.50;4.67;;;25.60;36.00;;;;;;5022415;28;20655;-76
2023/04/27 11:26:16;;;;;;;5.90;4.40;;;25.50;35.90;;;;;;5015457;28;20624;-76
2023/04/27 11:29:00;;;;;;;5.30;4.53;;;25.60;36.10;;;;;;4995196;28;20631;-77
2023/04/27 11:31:47;;;;;;;4.73;4.03;;;25.60;35.30;;;;;;5019037;28;21085;-77
2023/04/27 11:34:18;;;;;;;4.50;3.60;;;25.70;36.20;;;;;;4995001;28;20697;-77
2023/04/27 11:37:00;;;;;;;5.67;3.90;;;25.80;36.40;;;;;;5002274;28;21260;-77
2023/04/27 11:39:27;;;;;;;6.40;4.07;;;25.80;35.90;;;;;;5001960;28;20636;-76
2023/04/27 11:41:53;;;;;;;6.00;3.37;;;25.80;35.50;;;;;;5024479;28;20691;-77
2023/04/27 11:44:26;;;;;;;4.33;3.93;;;25.60;35.90;;;;;;5013340;28;21313;-77
2023/04/27 11:46:52;;;;;;;7.47;4.23;;;25.50;35.70;;;;;;5022135;28;20178;-77
2023/04/27 11:49:17;;;;;;;7.63;4.07;;;25.50;35.90;;;;;;5031003;28;20623;-77
2023/04/27 11:51:45;;;;;;;6.23;4.03;;;25.50;36.00;;;;;;5030248;28;20213;-75
2023/04/27 11:54:11;;;;;;;7.80;5.30;;;25.60;36.10;;;;;;5031389;28;20587;-75
2023/04/27 11:56:41;;;;;;;4.60;4.07;;;25.50;35.80;;;;;;5031034;28;20616;-76
2023/04/27 11:59:26;;;;;;;3.47;3.00;;;25.40;35.50;;;;;;5031416;28;20966;-75
2023/04/27 12:01:52;;;;;;;6.50;3.80;;;25.20;35.50;;;;;;5029704;28;20707;-75
2023/04/27 12:04:17;;;;;;;6.37;4.87;;;25.10;35.70;;;;;;5030213;28;20679;-75
2023/04/27 12:06:43;;;;;;;6.33;4.10;;;25.00;35.30;;;;;;5029212;28;20958;-75
2023/04/27 12:09:09;;;;;;;6.27;4.73;;;24.80;35.30;;;;;;5029956;28;20690;-75
2023/04/27 12:11:37;;;;;;;7.40;4.83;;;24.60;35.20;;;;;;5010872;28;20194;-75
2023/04/27 12:14:03;;;;;;;6.10;4.50;;;24.40;35.10;;;;;;5011461;28;20170;-75
2023/04/27 12:16:29;;;;;;;7.57;4.70;;;24.30;35.30;;;;;;5011108;28;20612;-75
2023/04/27 12:18:54;;;;;;;5.40;4.10;;;24.20;35.40;;;;;;5009855;28;20248;-76
2023/04/27 12:21:20;;;;;;;5.90;4.33;;;24.00;35.40;;;;;;5009872;28;20197;-76
2023/04/27 12:23:46;;;;;;;5.00;3.50;;;23.80;35.30;;;;;;5024961;28;20266;-76
2023/04/27 12:26:11;;;;;;;4.40;3.13;;;23.70;35.40;;;;;;5009784;28;20185;-75
2023/04/27 12:28:37;;;;;;;6.23;4.73;;;23.50;35.50;;;;;;5009394;28;20657;-76
2023/04/27 12:31:07;;;;;;;6.97;4.03;;;23.50;35.70;;;;;;5009838;28;20556;-77
2023/04/27 12:33:32;;;;;;;5.80;4.33;;;23.40;35.90;;;;;;5010769;28;20184;-76
2023/04/27 12:35:58;;;;;;;5.30;4.80;;;23.40;36.20;;;;;;5009583;28;20735;-75
2023/04/27 12:38:28;;;;;;;6.67;5.57;;;23.40;36.50;;;;;;4993304;28;20667;-76
2023/04/27 12:40:53;;;;;;;5.60;3.90;;;23.30;36.40;;;;;;5017315;28;20650;-76
2023/04/27 12:43:19;;;;;;;6.03;4.17;;;23.30;36.30;;;;;;5018034;28;20682;-77
2023/04/27 12:45:45;;;;;;;8.07;4.70;;;23.20;35.90;;;;;;5009081;28;20684;-76
2023/04/27 12:48:11;;;;;;;4.60;3.80;;;23.10;36.00;;;;;;5011793;28;20202;-76
2023/04/27 12:50:36;;;;;;;4.63;3.83;;;23.00;35.80;;;;;;5009861;28;20678;-76
2023/04/27 12:53:02;;;;;;;5.10;4.23;;;22.80;35.70;;;;;;5008634;28;20178;-76